createdAt,value
2022-10-06T00:00:30.009Z,73.62
2022-10-06T00:03:38.335Z,73.62
2022-10-06T00:06:30.614Z,73.69
2022-10-06T00:09:02.556Z,73.71
2022-10-06T00:11:54.714Z,73.91
2022-10-06T00:14:31.812Z,74.06
2022-10-06T00:17:03.727Z,74.31
2022-10-06T00:19:35.671Z,74.32
2022-10-06T00:22:17.973Z,74.31
2022-10-06T00:25:00.096Z,74.19
2022-10-06T00:27:53.894Z,74.23
2022-10-06T00:30:32.064Z,74.18
2022-10-06T00:33:04.950Z,74.30
2022-10-06T00:35:49.981Z,74.24
2022-10-06T00:38:21.951Z,74.35
2022-10-06T00:41:08.308Z,74.53
2022-10-06T00:43:52.587Z,74.59
2022-10-06T00:46:46.921Z,74.61
2022-10-06T00:49:23.172Z,74.77
2022-10-06T00:52:19.647Z,74.79
2022-10-06T00:54:52.161Z,74.83
2022-10-06T00:57:39.422Z,74.73
2022-10-06T01:00:22.226Z,74.60
2022-10-06T01:03:18.719Z,74.69
2022-10-06T01:06:11.582Z,74.87
2022-10-06T01:08:47.001Z,74.87
2022-10-06T01:11:39.301Z,75.07
2022-10-06T01:14:20.808Z,75.36
2022-10-06T01:17:07.734Z,75.38
2022-10-06T01:19:53.688Z,75.49
2022-10-06T01:22:47.727Z,75.38
2022-10-06T01:25:29.637Z,75.40
2022-10-06T01:28:16.205Z,75.54
2022-10-06T01:31:10.443Z,75.64
2022-10-06T01:33:42.902Z,75.52
2022-10-06T01:36:17.305Z,75.67
2022-10-06T01:38:49.343Z,75.69
2022-10-06T01:41:22.617Z,75.79
2022-10-06T01:44:07.514Z,75.74
2022-10-06T01:46:39.598Z,75.99
2022-10-06T01:49:31.643Z,76.03
2022-10-06T01:52:13.409Z,76.03
2022-10-06T01:54:45.176Z,75.94
2022-10-06T01:57:42.824Z,75.85
2022-10-06T02:00:18.651Z,75.94
2022-10-06T02:03:10.734Z,75.84
2022-10-06T02:05:42.568Z,76.07
2022-10-06T02:08:18.910Z,76.12
2022-10-06T02:11:10.161Z,76.31
2022-10-06T02:13:53.710Z,76.21
2022-10-06T02:16:45.724Z,76.30
2022-10-06T02:19:27.771Z,76.35
2022-10-06T02:22:20.158Z,76.43
2022-10-06T02:24:54.450Z,76.29
2022-10-06T02:27:28.982Z,76.27
2022-10-06T02:30:22.964Z,76.39
2022-10-06T02:32:55.566Z,76.49
2022-10-06T02:35:42.958Z,76.71
2022-10-06T02:38:18.126Z,76.76
2022-10-06T02:41:11.643Z,76.74
2022-10-06T02:44:06.715Z,76.71
2022-10-06T02:46:41.971Z,76.70
2022-10-06T02:49:13.874Z,76.52
2022-10-06T02:52:05.883Z,76.73
2022-10-06T02:54:47.163Z,76.76
2022-10-06T02:57:29.159Z,76.77
2022-10-06T03:00:14.945Z,77.11
2022-10-06T03:02:57.043Z,77.30
2022-10-06T03:05:34.139Z,77.34
2022-10-06T03:08:26.580Z,77.52
2022-10-06T03:11:06.718Z,77.53
2022-10-06T03:13:53.315Z,77.63
2022-10-06T03:16:45.913Z,77.65
2022-10-06T03:19:47.578Z,77.73
2022-10-06T03:22:37.206Z,77.63
2022-10-06T03:25:11.559Z,77.88
2022-10-06T03:27:44.383Z,77.84
2022-10-06T03:30:16.627Z,77.90
2022-10-06T03:32:48.984Z,78.07
2022-10-06T03:35:40.943Z,78.16
2022-10-06T03:38:26.775Z,78.41
2022-10-06T03:41:20.885Z,78.41
2022-10-06T03:44:12.909Z,78.37
2022-10-06T03:47:05.154Z,78.38
2022-10-06T03:49:57.266Z,78.23
2022-10-06T03:52:51.506Z,78.03
2022-10-06T03:55:24.124Z,78.07
2022-10-06T03:58:19.658Z,78.10
2022-10-06T04:01:01.157Z,78.12
2022-10-06T04:03:33.828Z,78.18
2022-10-06T04:06:28.726Z,78.14
2022-10-06T04:09:15.729Z,78.25
2022-10-06T04:11:59.413Z,78.39
2022-10-06T04:14:52.804Z,78.20
2022-10-06T04:17:30.476Z,78.15
2022-10-06T04:20:23.378Z,78.13
2022-10-06T04:22:56.910Z,78.12
2022-10-06T04:25:41.303Z,77.87
2022-10-06T04:28:14.480Z,77.77
2022-10-06T04:31:12.953Z,77.89
2022-10-06T04:33:49.225Z,77.79
2022-10-06T04:36:32.431Z,78.10
2022-10-06T04:39:15.237Z,78.02
2022-10-06T04:41:50.865Z,78.19
2022-10-06T04:44:48.981Z,78.19
2022-10-06T04:47:21.082Z,78.05
2022-10-06T04:49:54.292Z,77.99
2022-10-06T04:52:32.023Z,77.92
2022-10-06T04:55:05.418Z,77.67
2022-10-06T04:57:37.552Z,77.96
2022-10-06T05:00:25.825Z,77.90
2022-10-06T05:02:58.959Z,77.89
2022-10-06T05:05:33.880Z,78.02
2022-10-06T05:08:11.479Z,77.91
2022-10-06T05:10:43.442Z,77.93
2022-10-06T05:13:16.351Z,77.91
2022-10-06T05:15:58.143Z,77.87
2022-10-06T05:18:33.033Z,77.85
2022-10-06T05:21:08.391Z,77.73
2022-10-06T05:23:44.215Z,77.60
2022-10-06T05:26:18.670Z,77.58
2022-10-06T05:28:53.140Z,77.61
2022-10-06T05:31:40.514Z,77.43
2022-10-06T05:34:15.791Z,77.61
2022-10-06T05:36:51.498Z,77.47
2022-10-06T05:39:23.244Z,77.55
2022-10-06T05:41:59.313Z,77.46
2022-10-06T05:44:32.693Z,77.23
2022-10-06T05:47:17.224Z,76.97
2022-10-06T05:49:49.425Z,76.98
2022-10-06T05:52:31.577Z,76.60
2022-10-06T05:55:03.542Z,76.39
2022-10-06T05:57:35.396Z,76.07
2022-10-06T06:00:09.340Z,75.80
2022-10-06T06:02:45.089Z,75.60
2022-10-06T06:05:18.590Z,75.49
2022-10-06T06:07:52.943Z,75.26
2022-10-06T06:10:27.759Z,74.45
2022-10-06T06:13:00.436Z,74.28
2022-10-06T06:16:02.090Z,73.91
2022-10-06T06:18:36.946Z,73.68
2022-10-06T06:21:13.206Z,73.10
2022-10-06T06:24:06.302Z,72.71
2022-10-06T06:26:41.822Z,72.24
2022-10-06T06:29:17.520Z,71.82
2022-10-06T06:31:51.189Z,71.79
2022-10-06T06:34:23.385Z,71.95
2022-10-06T06:37:03.605Z,71.74
2022-10-06T06:39:39.017Z,71.35
2022-10-06T06:42:10.935Z,71.18
2022-10-06T06:44:45.224Z,71.23
2022-10-06T06:47:28.523Z,70.96
2022-10-06T06:50:03.166Z,70.55
2022-10-06T06:52:38.006Z,70.31
2022-10-06T06:55:11.594Z,70.15
2022-10-06T06:57:43.877Z,69.82
2022-10-06T07:00:36.417Z,69.22
2022-10-06T07:03:52.521Z,68.94
2022-10-06T07:06:18.761Z,68.33
2022-10-06T07:08:51.632Z,67.96
2022-10-06T07:11:44.066Z,67.75
2022-10-06T07:14:22.656Z,67.58
2022-10-06T07:17:12.604Z,68.49
2022-10-06T07:20:05.627Z,68.33
2022-10-06T07:22:55.315Z,67.86
2022-10-06T07:25:29.256Z,67.78
2022-10-06T07:28:06.882Z,67.38
2022-10-06T07:30:52.850Z,66.91
2022-10-06T07:33:28.384Z,66.05
2022-10-06T07:36:00.776Z,65.77
2022-10-06T07:38:33.594Z,64.99
2022-10-06T07:41:18.916Z,65.31
2022-10-06T07:44:11.830Z,64.58
2022-10-06T07:46:43.894Z,64.26
2022-10-06T07:49:22.259Z,64.44
2022-10-06T07:51:54.577Z,64.50
2022-10-06T07:54:27.592Z,64.53
2022-10-06T07:57:27.074Z,63.88
2022-10-06T08:00:02.916Z,64.27
2022-10-06T08:02:44.232Z,64.20
2022-10-06T08:05:15.988Z,64.21
2022-10-06T08:07:49.481Z,64.70
2022-10-06T08:10:22.011Z,64.09
2022-10-06T08:12:53.966Z,64.24
2022-10-06T08:15:26.011Z,64.00
2022-10-06T08:18:00.338Z,63.58
2022-10-06T08:20:32.598Z,63.67
2022-10-06T08:23:12.403Z,63.96
2022-10-06T08:25:50.492Z,64.23
2022-10-06T08:28:22.347Z,64.01
2022-10-06T08:30:55.516Z,63.82
2022-10-06T08:33:31.265Z,63.10
2022-10-06T08:36:09.356Z,61.32
2022-10-06T08:38:42.630Z,61.22
2022-10-06T08:41:23.649Z,61.78
2022-10-06T08:44:04.536Z,60.94
2022-10-06T08:46:41.565Z,61.13
2022-10-06T08:49:19.148Z,60.84
2022-10-06T08:51:58.353Z,60.64
2022-10-06T08:54:37.489Z,60.83
2022-10-06T08:57:16.107Z,61.32
2022-10-06T08:59:53.745Z,61.24
2022-10-06T09:02:31.327Z,61.01
2022-10-06T09:05:06.891Z,61.39
2022-10-06T09:07:49.714Z,61.32
2022-10-06T09:10:34.330Z,61.07
2022-10-06T09:13:12.648Z,60.43
2022-10-06T09:15:51.088Z,60.21
2022-10-06T09:18:49.441Z,60.34
2022-10-06T09:21:32.701Z,58.11
2022-10-06T09:24:13.791Z,58.04
2022-10-06T09:26:49.634Z,58.79
2022-10-06T09:29:21.845Z,57.77
2022-10-06T09:31:53.876Z,57.61
2022-10-06T09:34:35.019Z,57.90
2022-10-06T09:37:10.909Z,57.53
2022-10-06T09:39:44.525Z,56.98
2022-10-06T09:42:19.612Z,55.75
2022-10-06T09:45:00.915Z,54.09
2022-10-06T09:47:41.036Z,53.17
2022-10-06T09:50:22.156Z,52.98
2022-10-06T09:53:11.404Z,51.93
2022-10-06T09:55:55.336Z,50.83
2022-10-06T09:58:34.326Z,50.86
2022-10-06T10:01:09.294Z,52.15
2022-10-06T10:06:43.378Z,52.25
2022-10-06T10:09:27.200Z,52.05
2022-10-06T10:12:32.179Z,52.29
2022-10-06T10:15:24.369Z,53.35
2022-10-06T10:17:59.260Z,53.64
2022-10-06T10:20:37.598Z,54.21
2022-10-06T10:23:27.282Z,53.49
2022-10-06T10:26:17.727Z,53.70
2022-10-06T10:29:05.268Z,54.07
2022-10-06T10:31:48.178Z,53.95
2022-10-06T10:34:38.417Z,54.04
2022-10-06T10:37:14.498Z,53.52
2022-10-06T10:39:51.293Z,52.97
2022-10-06T10:42:31.242Z,52.01
2022-10-06T10:45:05.523Z,51.72
2022-10-06T10:47:41.439Z,52.91
2022-10-06T10:50:25.661Z,53.56
2022-10-06T10:53:05.930Z,53.48
2022-10-06T10:55:44.184Z,53.42
2022-10-06T10:58:22.765Z,53.34
2022-10-06T11:00:59.226Z,54.64
2022-10-06T11:03:31.363Z,54.16
2022-10-06T11:06:24.476Z,53.51
2022-10-06T11:09:03.081Z,52.72
2022-10-06T11:11:52.326Z,53.16
2022-10-06T11:14:37.945Z,52.26
2022-10-06T11:17:19.812Z,52.83
2022-10-06T11:19:58.839Z,53.22
2022-10-06T11:22:41.776Z,53.10
2022-10-06T11:25:25.835Z,53.23
2022-10-06T11:28:04.914Z,53.38
2022-10-06T11:30:46.009Z,54.46
2022-10-06T11:33:22.197Z,53.81
2022-10-06T11:35:54.167Z,52.47
2022-10-06T11:38:30.975Z,53.27
2022-10-06T11:41:13.787Z,53.20
2022-10-06T11:43:52.543Z,52.02
2022-10-06T11:46:41.289Z,53.01
2022-10-06T11:49:53.417Z,52.70
2022-10-06T11:52:57.233Z,52.47
2022-10-06T11:55:29.654Z,52.63
2022-10-06T11:58:41.464Z,52.98
2022-10-06T12:01:50.077Z,53.36
2022-10-06T12:04:24.742Z,52.86
2022-10-06T12:07:01.609Z,53.00
2022-10-06T12:10:16.134Z,52.75
2022-10-06T12:13:21.185Z,52.61
2022-10-06T12:19:19.539Z,53.64
2022-10-06T12:22:01.167Z,53.76
2022-10-06T12:24:48.116Z,54.17
2022-10-06T12:27:48.673Z,54.42
2022-10-06T12:30:27.963Z,55.09
2022-10-06T12:33:05.342Z,54.77
2022-10-06T12:35:40.045Z,55.08
2022-10-06T12:38:44.603Z,54.63
2022-10-06T12:41:37.966Z,54.60
2022-10-06T12:44:26.290Z,55.19
2022-10-06T12:47:01.570Z,55.19
2022-10-06T12:49:53.842Z,55.07
2022-10-06T12:52:46.797Z,55.47
2022-10-06T12:55:36.044Z,55.09
2022-10-06T12:58:17.149Z,54.82
2022-10-06T13:00:49.639Z,55.12
2022-10-06T13:03:26.281Z,55.64
2022-10-06T13:06:02.557Z,55.43
2022-10-06T13:08:36.836Z,55.31
2022-10-06T13:11:20.679Z,55.69
2022-10-06T13:13:54.950Z,55.20
2022-10-06T13:16:29.067Z,54.67
2022-10-06T13:19:02.312Z,55.18
2022-10-06T13:21:34.818Z,55.48
2022-10-06T13:24:06.959Z,55.77
2022-10-06T13:26:38.887Z,54.74
2022-10-06T13:29:21.354Z,55.53
2022-10-06T13:31:54.894Z,55.19
2022-10-06T13:34:33.429Z,55.22
2022-10-06T13:37:05.548Z,54.69
2022-10-06T13:39:37.446Z,55.54
2022-10-06T13:42:17.701Z,55.75
2022-10-06T13:44:56.895Z,55.62
2022-10-06T13:47:30.727Z,55.99
2022-10-06T13:50:04.942Z,56.65
2022-10-06T13:52:39.579Z,56.98
2022-10-06T13:55:21.828Z,57.40
2022-10-06T13:58:09.417Z,57.07
2022-10-06T14:00:50.397Z,56.44
2022-10-06T14:03:25.742Z,57.10
2022-10-06T14:06:10.152Z,57.67
2022-10-06T14:08:41.961Z,58.00
2022-10-06T14:11:13.933Z,58.24
2022-10-06T14:13:52.034Z,58.10
2022-10-06T14:16:26.347Z,58.68
2022-10-06T14:19:00.383Z,57.99
2022-10-06T14:21:38.780Z,58.00
2022-10-06T14:24:26.229Z,58.56
2022-10-06T14:27:03.592Z,58.91
2022-10-06T14:29:38.019Z,59.34
2022-10-06T14:32:14.667Z,59.72
2022-10-06T14:34:47.109Z,59.99
2022-10-06T14:37:18.975Z,60.22
2022-10-06T14:39:54.773Z,60.59
2022-10-06T14:42:26.647Z,60.87
2022-10-06T14:44:58.655Z,61.12
2022-10-06T14:47:31.434Z,61.00
2022-10-06T14:50:03.163Z,60.64
2022-10-06T14:52:35.083Z,60.60
2022-10-06T14:55:08.368Z,60.26
2022-10-06T14:57:40.771Z,60.70
2022-10-06T15:00:16.488Z,60.71
2022-10-06T15:02:48.725Z,60.68
2022-10-06T15:05:20.776Z,60.76
2022-10-06T15:08:11.849Z,60.91
2022-10-06T15:10:54.099Z,61.04
2022-10-06T15:13:25.955Z,61.14
2022-10-06T15:16:02.261Z,61.53
2022-10-06T15:18:38.424Z,61.51
2022-10-06T15:21:14.119Z,62.21
2022-10-06T15:23:46.378Z,62.81
2022-10-06T15:26:35.856Z,63.39
2022-10-06T15:29:07.770Z,64.01
2022-10-06T15:31:41.492Z,64.36
2022-10-06T15:34:14.453Z,64.73
2022-10-06T15:36:46.244Z,64.67
2022-10-06T15:39:18.397Z,64.78
2022-10-06T15:41:50.648Z,65.06
2022-10-06T15:44:25.958Z,65.61
2022-10-06T15:46:59.113Z,65.82
2022-10-06T15:49:32.967Z,66.14
2022-10-06T15:52:05.776Z,66.24
2022-10-06T15:54:39.718Z,66.73
2022-10-06T15:57:17.926Z,67.05
2022-10-06T15:59:52.445Z,67.37
2022-10-06T16:02:24.693Z,67.58
2022-10-06T16:05:17.793Z,68.10
2022-10-06T16:07:49.703Z,68.23
2022-10-06T16:10:21.460Z,68.37
2022-10-06T16:12:53.206Z,68.56
2022-10-06T16:15:25.291Z,68.41
2022-10-06T16:17:57.492Z,68.35
2022-10-06T16:20:32.304Z,68.73
2022-10-06T16:23:04.177Z,69.05
2022-10-06T16:25:35.922Z,69.05
2022-10-06T16:28:07.653Z,69.16
2022-10-06T16:30:39.628Z,69.58
2022-10-06T16:33:11.361Z,69.62
2022-10-06T16:35:43.210Z,69.93
2022-10-06T16:38:18.017Z,70.11
2022-10-06T16:40:57.718Z,70.07
2022-10-06T16:43:35.771Z,70.46
2022-10-06T16:46:09.207Z,70.48
2022-10-06T16:48:43.219Z,70.69
2022-10-06T16:51:17.242Z,71.14
2022-10-06T16:53:51.118Z,71.60
2022-10-06T16:56:24.999Z,72.23
2022-10-06T16:58:59.192Z,72.21
2022-10-06T17:01:32.460Z,72.44
2022-10-06T17:04:06.714Z,72.61
2022-10-06T17:06:40.478Z,72.70
2022-10-06T17:09:14.677Z,72.81
2022-10-06T17:11:49.149Z,72.98
2022-10-06T17:14:22.297Z,73.26
2022-10-06T17:16:57.001Z,73.27
2022-10-06T17:19:31.109Z,73.68
2022-10-06T17:22:02.968Z,73.65
2022-10-06T17:24:34.835Z,73.80
2022-10-06T17:27:10.386Z,73.84
2022-10-06T17:29:44.706Z,73.96
2022-10-06T17:32:16.809Z,73.99
2022-10-06T17:34:48.954Z,73.94
2022-10-06T17:37:21.897Z,73.87
2022-10-06T17:39:53.771Z,73.97
2022-10-06T17:42:25.567Z,74.04
2022-10-06T17:44:58.446Z,74.21
2022-10-06T17:47:30.258Z,74.22
2022-10-06T17:50:01.971Z,74.46
2022-10-06T17:52:37.632Z,74.51
2022-10-06T17:55:11.306Z,74.68
2022-10-06T17:57:43.326Z,74.76
2022-10-06T18:00:18.251Z,74.75
2022-10-06T18:02:50.402Z,74.96
2022-10-06T18:05:22.337Z,75.23
2022-10-06T18:07:56.268Z,75.54
2022-10-06T18:10:45.393Z,75.57
2022-10-06T18:13:17.229Z,75.92
2022-10-06T18:15:49.641Z,76.27
2022-10-06T18:18:25.322Z,76.55
2022-10-06T18:21:04.524Z,76.54
2022-10-06T18:23:39.645Z,76.82
2022-10-06T18:26:12.861Z,77.07
2022-10-06T18:28:48.315Z,77.43
2022-10-06T18:31:23.991Z,77.51
2022-10-06T18:36:47.742Z,78.25
2022-10-06T18:39:19.858Z,78.81
2022-10-06T18:41:52.902Z,78.81
2022-10-06T18:44:38.762Z,78.91
2022-10-06T18:47:27.903Z,79.06
2022-10-06T18:50:02.431Z,79.12
2022-10-06T18:52:34.683Z,79.26
2022-10-06T18:55:07.927Z,79.30
2022-10-06T18:57:40.477Z,79.21
2022-10-06T19:00:13.898Z,79.59
2022-10-06T19:02:48.460Z,79.88
2022-10-06T19:05:20.770Z,80.10
2022-10-06T19:07:54.784Z,80.10
2022-10-06T19:10:29.881Z,80.59
2022-10-06T19:13:01.905Z,80.85
2022-10-06T19:15:33.706Z,80.73
2022-10-06T19:18:07.256Z,81.02
2022-10-06T19:20:39.217Z,80.78
2022-10-06T19:23:11.823Z,80.77
2022-10-06T19:25:50.809Z,80.80
2022-10-06T19:28:22.705Z,80.87
2022-10-06T19:31:01.841Z,80.93
2022-10-06T19:33:34.585Z,81.03
2022-10-06T19:36:09.422Z,81.10
2022-10-06T19:38:41.985Z,81.27
2022-10-06T19:41:34.216Z,81.39
2022-10-06T19:44:06.237Z,81.38
2022-10-06T19:46:38.644Z,81.61
2022-10-06T19:49:11.496Z,81.68
2022-10-06T19:51:43.310Z,81.81
2022-10-06T19:54:15.519Z,81.67
2022-10-06T19:56:48.503Z,81.79
2022-10-06T19:59:22.554Z,81.84
2022-10-06T20:01:55.129Z,81.92
2022-10-06T20:04:27.480Z,81.87
2022-10-06T20:07:02.008Z,81.89
2022-10-06T20:09:34.023Z,81.69
2022-10-06T20:12:07.018Z,81.90
2022-10-06T20:14:40.942Z,81.72
2022-10-06T20:17:12.853Z,81.68
2022-10-06T20:19:47.353Z,81.84
2022-10-06T20:22:21.534Z,81.97
2022-10-06T20:24:53.469Z,82.09
2022-10-06T20:27:25.590Z,82.28
2022-10-06T20:29:58.210Z,82.35
2022-10-06T20:32:31.268Z,82.54
2022-10-06T20:35:04.889Z,82.46
2022-10-06T20:37:38.483Z,82.46
2022-10-06T20:40:29.634Z,82.62
2022-10-06T20:43:02.865Z,82.51
2022-10-06T20:45:37.834Z,82.47
2022-10-06T20:48:15.503Z,82.26
2022-10-06T20:50:47.488Z,82.34
2022-10-06T20:53:19.227Z,82.40
2022-10-06T20:55:55.901Z,82.36
2022-10-06T20:58:27.834Z,82.50
2022-10-06T21:01:08.701Z,82.39
2022-10-06T21:03:48.848Z,82.50
2022-10-06T21:06:21.079Z,82.32
2022-10-06T21:08:56.414Z,82.28
2022-10-06T21:11:34.885Z,82.13
2022-10-06T21:14:07.481Z,82.31
2022-10-06T21:16:42.129Z,82.06
2022-10-06T21:19:18.284Z,82.03
2022-10-06T21:21:53.441Z,81.95
2022-10-06T21:24:26.212Z,82.09
2022-10-06T21:27:01.127Z,81.99
2022-10-06T21:29:32.970Z,82.04
2022-10-06T21:32:05.095Z,81.95
2022-10-06T21:34:37.543Z,81.96
2022-10-06T21:37:09.510Z,82.02
2022-10-06T21:39:42.268Z,82.18
2022-10-06T21:42:14.361Z,82.16
2022-10-06T21:44:47.402Z,82.06
2022-10-06T21:47:19.358Z,81.89
2022-10-06T21:49:53.508Z,81.71
2022-10-06T21:52:25.420Z,81.52
2022-10-06T21:54:57.333Z,81.38
2022-10-06T21:57:29.316Z,81.37
2022-10-06T22:00:01.153Z,81.06
2022-10-06T22:02:33.148Z,81.13
2022-10-06T22:05:07.757Z,81.11
2022-10-06T22:07:39.875Z,81.04
2022-10-06T22:10:14.408Z,81.01
2022-10-06T22:45:05.217Z,80.70
2022-10-06T22:47:38.141Z,80.84
2022-10-06T22:50:11.323Z,81.13
2022-10-06T22:52:46.114Z,81.37
2022-10-06T22:55:19.070Z,81.50
2022-10-06T22:57:51.148Z,81.77
2022-10-06T23:00:23.033Z,81.95
2022-10-06T23:02:55.107Z,82.21
2022-10-06T23:05:27.193Z,82.15
2022-10-06T23:07:59.469Z,82.00
2022-10-06T23:10:31.579Z,82.60
2022-10-06T23:13:04.125Z,82.83
2022-10-06T23:15:38.441Z,82.60
2022-10-06T23:18:13.292Z,82.56
2022-10-06T23:20:45.226Z,82.74
2022-10-06T23:23:19.370Z,82.43
2022-10-06T23:25:51.356Z,82.58
2022-10-06T23:28:24.683Z,83.07
2022-10-06T23:30:59.228Z,83.54
2022-10-06T23:33:34.131Z,83.23
2022-10-06T23:36:08.394Z,83.21
2022-10-06T23:38:42.294Z,83.52
2022-10-06T23:41:15.745Z,83.56
2022-10-06T23:43:47.809Z,83.18
2022-10-06T23:46:19.818Z,82.95
2022-10-06T23:48:51.738Z,82.94
2022-10-06T23:51:23.566Z,82.89
2022-10-06T23:53:55.373Z,83.01
2022-10-06T23:56:27.160Z,83.41
2022-10-06T23:58:58.998Z,83.62
